Time;durP1;ratioP1;P1;durP2;ratioP2;P2;SDS_P1;SDS_P2;PMS_P1;PMS_P2;Temp;Humidity;BMP_temperature;BMP_pressure;BME280_temperature;BME280_humidity;BME280_pressure;Samples;Min_cycle;Max_cycle;Signal;HPM_P1;HPM_P2
2023/06/21 00:02:17;;;;;;;12.10;10.90;;;;;;;18.13;100.00;101119.47;6180601;23;20088;-83
2023/06/21 00:04:43;;;;;;;12.75;11.43;;;;;;;18.05;100.00;101124.75;6180306;23;20308;-84
2023/06/21 00:07:08;;;;;;;13.10;11.77;;;;;;;18.05;100.00;101114.09;6178857;23;20031;-84
2023/06/21 00:09:33;;;;;;;14.27;11.73;;;;;;;18.00;100.00;101120.84;6154699;23;20008;-83
2023/06/21 00:11:59;;;;;;;12.98;11.63;;;;;;;18.03;100.00;101128.56;6154434;23;20027;-83
2023/06/21 00:14:24;;;;;;;12.63;11.43;;;;;;;18.06;100.00;101142.41;6178772;23;20432;-83
2023/06/21 00:16:49;;;;;;;12.77;11.63;;;;;;;18.02;100.00;101132.22;6180741;23;20001;-82
2023/06/21 00:19:15;;;;;;;12.43;11.23;;;;;;;18.00;100.00;101142.16;6179229;23;20011;-75
2023/06/21 00:21:40;;;;;;;12.77;11.38;;;;;;;18.00;100.00;101140.31;6181198;23;20379;-83
2023/06/21 00:24:08;;;;;;;13.25;11.88;;;;;;;17.97;100.00;101143.28;6181546;23;20080;-76
2023/06/21 00:26:34;;;;;;;13.77;12.38;;;;;;;17.95;100.00;101139.94;6182429;23;20004;-84
2023/06/21 00:28:59;;;;;;;13.10;11.80;;;;;;;17.94;100.00;101143.59;6179896;23;20493;-83
2023/06/21 00:31:25;;;;;;;13.02;11.93;;;;;;;17.91;100.00;101135.94;6181329;23;20009;-83
2023/06/21 00:33:50;;;;;;;15.32;12.18;;;;;;;17.92;100.00;101129.63;6154978;23;20005;-83
2023/06/21 00:36:18;;;;;;;13.80;12.60;;;;;;;17.91;100.00;101138.59;6154178;23;20079;-82
2023/06/21 00:38:43;;;;;;;13.80;12.13;;;;;;;17.93;100.00;101141.94;6183759;23;20035;-82
2023/06/21 00:41:08;;;;;;;13.00;11.70;;;;;;;17.89;100.00;101145.06;6184258;23;20013;-83
2023/06/21 00:43:34;;;;;;;14.20;12.25;;;;;;;17.90;100.00;101142.25;6156245;23;20450;-83
2023/06/21 00:46:00;;;;;;;13.73;12.43;;;;;;;17.89;100.00;101145.06;6156500;23;20005;-76
2023/06/21 00:48:28;;;;;;;13.57;12.38;;;;;;;17.89;100.00;101145.91;6180355;23;20009;-82
2023/06/21 00:50:55;;;;;;;13.45;12.13;;;;;;;17.90;100.00;101147.56;6183716;23;20005;-81
2023/06/21 00:53:22;;;;;;;13.77;12.30;;;;;;;17.89;100.00;101142.41;6181866;23;20001;-83
2023/06/21 00:55:48;;;;;;;13.15;11.95;;;;;;;17.92;100.00;101144.75;6155805;23;20029;-83
2023/06/21 00:58:15;;;;;;;13.95;12.40;;;;;;;17.89;100.00;101153.88;6156458;23;20055;-82
2023/06/21 01:00:43;;;;;;;13.25;11.98;;;;;;;17.88;100.00;101151.38;6156458;23;20016;-74
2023/06/21 01:03:09;;;;;;;14.18;12.68;;;;;;;17.88;100.00;101149.53;6181225;23;20001;-83
2023/06/21 01:05:36;;;;;;;15.30;12.75;;;;;;;17.86;100.00;101156.84;6183307;23;20004;-75
2023/06/21 01:08:38;;;;;;;14.15;12.65;;;;;;;17.87;100.00;101158.53;6182648;23;20108;-81
2023/06/21 01:11:51;;;;;;;13.70;12.50;;;;;;;17.89;100.00;101159.22;6182528;23;20005;-75
2023/06/21 01:14:41;;;;;;;13.80;12.50;;;;;;;17.87;100.00;101153.19;6062730;23;20289;-82
2023/06/21 01:17:10;;;;;;;13.90;12.50;;;;;;;17.84;100.00;101165.00;6184872;23;20008;-82
2023/06/21 01:19:48;;;;;;;14.35;12.88;;;;;;;17.82;100.00;101150.16;6182440;23;20001;-75
2023/06/21 01:22:22;;;;;;;14.07;12.68;;;;;;;17.83;100.00;101154.50;6181869;23;20001;-75
2023/06/21 01:25:17;;;;;;;13.77;12.40;;;;;;;17.83;100.00;101165.16;6157102;23;20013;-83
2023/06/21 01:28:02;;;;;;;13.32;11.95;;;;;;;17.82;100.00;101166.13;6156022;23;20013;-83
2023/06/21 01:30:31;;;;;;;13.30;12.10;;;;;;;17.79;100.00;101158.47;6181784;23;20027;-82
2023/06/21 01:32:59;;;;;;;13.00;11.75;;;;;;;17.81;100.00;101159.97;6156955;23;20008;-83
2023/06/21 01:35:25;;;;;;;14.52;13.02;;;;;;;17.77;100.00;101157.78;6183288;23;19997;-83
2023/06/21 01:37:51;;;;;;;13.15;11.88;;;;;;;17.77;100.00;101165.75;6182636;23;20013;-75
2023/06/21 01:40:17;;;;;;;14.10;12.52;;;;;;;17.74;100.00;101169.56;6181434;23;20058;-82
2023/06/21 01:42:42;;;;;;;13.95;12.57;;;;;;;17.77;100.00;101171.09;6183457;23;20446;-74
2023/06/21 01:45:08;;;;;;;14.13;12.80;;;;;;;17.76;100.00;101166.75;6184335;23;20301;-75
2023/06/21 01:47:35;;;;;;;13.80;12.30;;;;;;;17.76;100.00;101164.91;6183883;23;20138;-83
2023/06/21 01:50:05;;;;;;;14.20;12.73;;;;;;;17.74;100.00;101164.25;6182034;23;20309;-82
2023/06/21 01:52:32;;;;;;;14.10;12.75;;;;;;;17.77;100.00;101163.09;6181608;23;20032;-83
2023/06/21 01:54:57;;;;;;;13.57;12.23;;;;;;;17.73;100.00;101167.06;6183469;23;20714;-83
2023/06/21 01:57:25;;;;;;;13.38;12.07;;;;;;;17.67;100.00;101173.00;6155581;23;20005;-75
2023/06/21 01:59:50;;;;;;;14.18;12.68;;;;;;;17.74;100.00;101179.38;6181136;23;20023;-82
2023/06/21 02:02:20;;;;;;;15.32;13.82;;;;;;;17.67;100.00;101173.00;6181385;23;20033;-82
2023/06/21 02:04:46;;;;;;;14.30;12.90;;;;;;;17.66;100.00;101181.94;6181820;23;20474;-82
2023/06/21 02:07:13;;;;;;;14.32;13.00;;;;;;;17.70;100.00;101188.66;6182156;23;20431;-83
2023/06/21 02:09:40;;;;;;;15.98;12.77;;;;;;;17.66;100.00;101184.59;6183045;23;20004;-84
2023/06/21 02:12:06;;;;;;;14.35;13.05;;;;;;;17.66;100.00;101188.09;6184166;23;20033;-75
2023/06/21 02:14:32;;;;;;;14.77;13.38;;;;;;;17.62;100.00;101191.22;6155616;23;20096;-83
2023/06/21 02:16:57;;;;;;;14.35;13.02;;;;;;;17.59;100.00;101180.84;6180880;23;20036;-84
2023/06/21 02:19:24;;;;;;;15.02;13.73;;;;;;;17.57;100.00;101199.59;6182317;23;20008;-83
2023/06/21 02:21:50;;;;;;;14.70;13.32;;;;;;;17.55;100.00;101199.75;6180898;23;20008;-83
2023/06/21 02:24:15;;;;;;;15.32;13.93;;;;;;;17.59;100.00;101205.63;6181482;23;20013;-83
2023/06/21 02:26:41;;;;;;;14.85;13.38;;;;;;;17.62;100.00;101208.00;6154686;23;20055;-83
2023/06/21 02:29:09;;;;;;;15.30;13.73;;;;;;;17.60;100.00;101211.78;6181695;23;20005;-83
2023/06/21 02:31:35;;;;;;;14.93;13.63;;;;;;;17.59;100.00;101208.28;6182109;23;20012;-75
2023/06/21 02:34:00;;;;;;;15.25;13.77;;;;;;;17.59;100.00;101207.44;6180777;23;20005;-83
2023/06/21 02:36:26;;;;;;;15.38;13.95;;;;;;;17.57;100.00;101228.03;6182093;23;20024;-83
2023/06/21 02:38:52;;;;;;;15.77;14.10;;;;;;;17.55;100.00;101222.88;6155873;23;20040;-84
2023/06/21 02:41:17;;;;;;;16.55;14.90;;;;;;;17.51;100.00;101230.31;6181093;23;20028;-82
2023/06/21 02:43:43;;;;;;;16.60;14.85;;;;;;;17.50;100.00;101225.97;6182146;23;20005;-82
2023/06/21 02:46:08;;;;;;;15.27;13.75;;;;;;;17.48;100.00;101230.63;6182485;23;20008;-75
2023/06/21 02:48:35;;;;;;;16.77;15.07;;;;;;;17.48;100.00;101232.44;6180359;23;20089;-75
2023/06/21 02:51:00;;;;;;;15.27;13.88;;;;;;;17.50;100.00;101225.97;6181427;23;20001;-83
2023/06/21 02:53:26;;;;;;;16.00;14.40;;;;;;;17.51;100.00;101232.97;6182335;23;20386;-82
2023/06/21 02:55:51;;;;;;;14.98;13.48;;;;;;;17.51;100.00;101232.97;6181211;23;19997;-75
2023/06/21 02:58:17;;;;;;;16.08;14.48;;;;;;;17.45;100.00;101238.91;6181696;23;20090;-75
2023/06/21 03:00:42;;;;;;;15.07;13.57;;;;;;;17.44;100.00;101249.69;6155131;23;20005;-82
2023/06/21 03:03:10;;;;;;;16.17;14.57;;;;;;;17.38;100.00;101252.94;6181242;23;20084;-75
2023/06/21 03:05:37;;;;;;;16.35;14.75;;;;;;;17.44;100.00;101252.34;6181866;23;20005;-82
2023/06/21 03:08:07;;;;;;;16.00;14.40;;;;;;;17.37;100.00;101256.59;6154285;23;20063;-83
2023/06/21 03:10:33;;;;;;;14.95;13.52;;;;;;;17.42;100.00;101265.81;6178784;23;20075;-75
2023/06/21 03:12:59;;;;;;;16.80;15.20;;;;;;;17.41;100.00;101266.78;6181796;23;20012;-82
2023/06/21 03:15:25;;;;;;;16.75;15.13;;;;;;;17.40;100.00;101273.09;6155642;23;20001;-82
2023/06/21 03:17:51;;;;;;;16.40;14.75;;;;;;;17.40;100.00;101278.41;6180445;23;20443;-82
2023/06/21 03:20:16;;;;;;;16.63;15.02;;;;;;;17.39;100.00;101271.41;6155530;23;20005;-82
2023/06/21 03:22:43;;;;;;;15.88;14.27;;;;;;;17.40;100.00;101285.56;6181513;23;20019;-81
2023/06/21 03:25:13;;;;;;;16.50;14.82;;;;;;;17.38;100.00;101285.72;6179885;23;20017;-82
2023/06/21 03:27:39;;;;;;;16.35;14.85;;;;;;;17.41;100.00;101285.41;6155651;23;20034;-82
2023/06/21 03:30:06;;;;;;;17.00;15.40;;;;;;;17.40;100.00;101286.41;6181216;23;20084;-82
2023/06/21 03:32:33;;;;;;;17.17;15.57;;;;;;;17.39;100.00;101282.06;6155444;23;20001;-83
2023/06/21 03:34:58;;;;;;;18.52;16.70;;;;;;;17.40;100.00;101283.72;6180300;23;20000;-82
2023/06/21 03:37:28;;;;;;;17.73;16.02;;;;;;;17.40;100.00;101280.25;6180901;23;20088;-83
2023/06/21 03:39:53;;;;;;;18.00;16.30;;;;;;;17.40;100.00;101281.06;6154627;23;20391;-82
2023/06/21 03:42:20;;;;;;;17.55;15.65;;;;;;;17.43;100.00;101280.78;6181317;23;20017;-83
2023/06/21 03:44:46;;;;;;;25.27;18.17;;;;;;;17.43;100.00;101278.13;6180974;23;20035;-82
2023/06/21 03:47:12;;;;;;;17.73;15.90;;;;;;;17.47;100.00;101273.34;6155542;23;20035;-75
2023/06/21 03:49:40;;;;;;;17.67;15.98;;;;;;;17.53;100.00;101273.59;6181566;23;20611;-75
2023/06/21 03:52:06;;;;;;;18.40;16.55;;;;;;;17.53;100.00;101280.72;6180437;23;20029;-82
2023/06/21 03:54:31;;;;;;;18.60;16.77;;;;;;;17.57;100.00;101278.59;6181736;23;20001;-82
2023/06/21 03:56:56;;;;;;;18.40;16.60;;;;;;;17.58;100.00;101286.44;6154279;23;20209;-83
2023/06/21 03:59:22;;;;;;;18.50;16.58;;;;;;;17.64;100.00;101290.34;6180412;23;20008;-82
2023/06/21 04:01:47;;;;;;;19.10;17.33;;;;;;;17.70;100.00;101289.78;6181413;23;20005;-82
2023/06/21 04:04:13;;;;;;;18.95;17.15;;;;;;;17.87;100.00;101291.63;6181118;23;20011;-82
2023/06/21 04:06:38;;;;;;;18.65;16.75;;;;;;;18.15;100.00;101295.94;6154706;23;20009;-82
2023/06/21 04:09:05;;;;;;;18.00;16.08;;;;;;;18.55;100.00;101291.97;6181669;23;20036;-74
2023/06/21 04:11:30;;;;;;;17.95;16.20;;;;;;;18.83;100.00;101300.72;6153727;23;20005;-82
2023/06/21 04:13:58;;;;;;;16.00;14.38;;;;;;;19.25;100.00;101300.81;6180452;23;20335;-74
2023/06/21 04:16:23;;;;;;;17.15;14.57;;;;;;;19.73;100.00;101307.38;6154779;23;20001;-82
2023/06/21 04:18:49;;;;;;;14.82;13.35;;;;;;;19.99;100.00;101310.78;6153326;23;20015;-75
2023/06/21 04:21:14;;;;;;;15.68;14.18;;;;;;;19.73;100.00;101314.56;6179816;23;20004;-81
2023/06/21 04:23:40;;;;;;;16.20;14.50;;;;;;;19.55;100.00;101322.66;6180656;23;20424;-74
2023/06/21 04:26:12;;;;;;;15.65;14.23;;;;;;;19.30;100.00;101322.50;6181353;23;20008;-82
2023/06/21 04:28:40;;;;;;;17.95;16.02;;;;;;;19.11;100.00;101325.38;6179785;23;20055;-82
2023/06/21 04:31:05;;;;;;;19.13;16.10;;;;;;;18.88;100.00;101318.91;6180957;23;20002;-82
2023/06/21 04:33:32;;;;;;;17.60;15.90;;;;;;;18.83;100.00;101329.22;6180402;23;20008;-81
2023/06/21 04:35:57;;;;;;;18.08;16.20;;;;;;;18.73;100.00;101327.44;6181144;23;20509;-81
2023/06/21 04:38:23;;;;;;;17.55;15.93;;;;;;;18.67;100.00;101333.41;6181572;23;20001;-82
2023/06/21 04:40:52;;;;;;;19.20;17.35;;;;;;;18.55;100.00;101339.94;6179991;23;20044;-82
2023/06/21 04:43:18;;;;;;;17.80;16.00;;;;;;;18.58;100.00;101338.78;6180961;23;20012;-81
2023/06/21 04:45:48;;;;;;;18.33;16.52;;;;;;;18.56;100.00;101340.78;6154599;23;20015;-80
2023/06/21 04:48:14;;;;;;;18.05;16.40;;;;;;;18.55;100.00;101331.94;6180723;23;20008;-81
2023/06/21 04:50:45;;;;;;;19.77;17.80;;;;;;;18.57;100.00;101327.28;6180289;23;20001;-81
2023/06/21 04:53:12;;;;;;;19.33;17.52;;;;;;;18.59;100.00;101330.63;6154079;23;20009;-81
2023/06/21 04:55:42;;;;;;;19.58;17.65;;;;;;;18.65;100.00;101323.88;6180865;23;20001;-83
2023/06/21 04:58:09;;;;;;;19.48;17.67;;;;;;;18.66;100.00;101326.41;6181611;23;20009;-82
2023/06/21 05:00:35;;;;;;;20.85;18.65;;;;;;;18.70;100.00;101329.59;6154105;23;20016;-75
2023/06/21 05:03:00;;;;;;;20.05;18.05;;;;;;;18.73;100.00;101335.44;6179662;23;20001;-74
2023/06/21 05:05:25;;;;;;;19.50;17.70;;;;;;;18.78;100.00;101337.66;6181161;23;20009;-82
2023/06/21 05:07:51;;;;;;;22.92;19.65;;;;;;;18.73;100.00;101338.09;6181021;23;20005;-81
2023/06/21 05:10:16;;;;;;;21.95;19.77;;;;;;;18.71;100.00;101345.44;6179620;23;20087;-81
2023/06/21 05:12:42;;;;;;;22.45;20.15;;;;;;;18.69;100.00;101351.91;6154448;23;20092;-81
2023/06/21 05:15:10;;;;;;;21.58;19.42;;;;;;;18.76;100.00;101353.78;6181085;23;20001;-82
2023/06/21 05:17:35;;;;;;;22.48;20.27;;;;;;;18.87;100.00;101349.22;6179802;23;20075;-82
2023/06/21 05:20:03;;;;;;;23.30;20.88;;;;;;;18.89;100.00;101363.25;6179734;23;20362;-82
2023/06/21 05:22:33;;;;;;;23.60;21.08;;;;;;;18.95;100.00;101363.47;6180578;23;20004;-83
2023/06/21 05:25:00;;;;;;;22.23;19.98;;;;;;;19.01;100.00;101367.34;6181732;23;20051;-82
2023/06/21 05:27:25;;;;;;;23.80;21.35;;;;;;;19.03;100.00;101376.00;6182417;23;20080;-81
2023/06/21 05:29:51;;;;;;;22.58;20.05;;;;;;;19.03;100.00;101376.00;6181531;23;20074;-74
2023/06/21 05:32:19;;;;;;;24.30;21.80;;;;;;;19.00;100.00;101373.66;6182119;23;20080;-83
2023/06/21 05:34:45;;;;;;;24.25;21.80;;;;;;;18.97;100.00;101372.16;6182135;23;20004;-82
2023/06/21 05:37:10;;;;;;;24.55;22.13;;;;;;;18.98;100.00;101364.97;6181453;23;20461;-73
2023/06/21 05:39:40;;;;;;;24.27;21.85;;;;;;;18.97;100.00;101374.81;6183084;23;20040;-74
2023/06/21 05:42:06;;;;;;;25.00;22.35;;;;;;;18.95;100.00;101373.28;6181390;23;20017;-74
2023/06/21 05:44:31;;;;;;;26.38;22.73;;;;;;;18.94;100.00;101376.94;6180300;23;20000;-74
2023/06/21 05:46:57;;;;;;;25.48;22.80;;;;;;;18.95;100.00;101384.78;6182562;23;20012;-82
2023/06/21 05:49:22;;;;;;;25.02;21.80;;;;;;;19.00;100.00;101387.84;6182495;23;20044;-82
2023/06/21 05:51:49;;;;;;;24.65;22.25;;;;;;;19.03;100.00;101384.00;6153719;23;20013;-82
2023/06/21 05:54:14;;;;;;;24.05;21.55;;;;;;;19.07;100.00;101399.56;6182293;23;20382;-83
2023/06/21 05:56:39;;;;;;;24.42;21.92;;;;;;;19.07;100.00;101396.03;6182880;23;20031;-77
2023/06/21 05:59:06;;;;;;;23.92;21.33;;;;;;;19.10;100.00;101409.06;6181952;23;20387;-78
2023/06/21 06:01:32;;;;;;;25.10;22.50;;;;;;;19.14;100.00;101410.44;6181129;23;20033;-78
2023/06/21 06:03:58;;;;;;;25.25;22.60;;;;;;;19.15;100.00;101422.78;6179190;23;20009;-77
2023/06/21 06:06:33;;;;;;;25.50;23.00;;;;;;;19.20;100.00;101419.63;6180264;23;20001;-77
2023/06/21 06:09:00;;;;;;;25.35;22.95;;;;;;;19.26;100.00;101424.38;6180892;23;20005;-76
2023/06/21 06:11:25;;;;;;;25.30;22.58;;;;;;;19.29;100.00;101430.25;6181063;23;20051;-77
2023/06/21 06:13:50;;;;;;;25.98;23.05;;;;;;;19.37;100.00;101422.28;6180421;23;20342;-77
2023/06/21 06:16:15;;;;;;;23.35;20.95;;;;;;;19.35;100.00;101421.59;6155961;23;20502;-77
2023/06/21 06:18:44;;;;;;;23.73;21.27;;;;;;;19.36;100.00;101425.13;6181924;23;20012;-77
2023/06/21 06:21:10;;;;;;;22.48;20.27;;;;;;;19.40;100.00;101421.97;6181106;23;20166;-77
2023/06/21 06:23:35;;;;;;;23.13;20.65;;;;;;;19.42;100.00;101422.66;6155604;23;20024;-82
2023/06/21 06:26:00;;;;;;;22.40;19.92;;;;;;;19.49;100.00;101427.34;6180310;23;20863;-82
2023/06/21 06:28:25;;;;;;;19.30;17.48;;;;;;;19.48;100.00;101428.34;6180251;23;20005;-82
2023/06/21 06:30:51;;;;;;;18.50;16.67;;;;;;;19.51;100.00;101439.56;6181522;23;20008;-82
2023/06/21 06:33:18;;;;;;;21.33;17.90;;;;;;;19.54;100.00;101447.28;6181414;23;20423;-82
2023/06/21 06:35:44;;;;;;;16.98;15.18;;;;;;;19.58;100.00;101450.47;6154926;23;20078;-82
2023/06/21 06:38:09;;;;;;;16.85;15.15;;;;;;;19.55;100.00;101451.63;6155642;23;20084;-82
2023/06/21 06:40:36;;;;;;;19.52;14.98;;;;;;;19.62;100.00;101455.38;6182119;23;20091;-82
2023/06/21 06:43:02;;;;;;;13.98;12.57;;;;;;;19.67;100.00;101454.88;6182324;23;20404;-82
2023/06/21 06:45:27;;;;;;;15.85;13.93;;;;;;;19.70;100.00;101462.59;6182020;23;20467;-82
2023/06/21 06:47:53;;;;;;;12.68;11.57;;;;;;;19.81;100.00;101467.66;6180946;23;20011;-77
2023/06/21 06:50:18;;;;;;;14.93;11.85;;;;;;;19.87;100.00;101472.34;6180961;23;20001;-77
2023/06/21 06:52:44;;;;;;;12.85;11.27;;;;;;;19.93;100.00;101482.41;6180448;23;20001;-77
2023/06/21 06:55:09;;;;;;;12.77;11.48;;;;;;;19.91;100.00;101481.72;6152602;23;19997;-77
2023/06/21 06:57:36;;;;;;;11.63;10.52;;;;;;;19.94;100.00;101492.09;6181933;23;20080;-77
2023/06/21 07:00:02;;;;;;;12.40;11.10;;;;;;;19.97;100.00;101494.44;6182169;23;20016;-77
2023/06/21 07:02:29;;;;;;;12.00;10.10;;;;;;;19.97;99.34;101489.09;6180155;23;20008;-77
2023/06/21 07:04:55;;;;;;;12.27;10.90;;;;;;;20.07;98.67;101493.50;6181606;23;20079;-76
2023/06/21 07:07:21;;;;;;;12.98;11.25;;;;;;;20.17;98.42;101483.53;6181399;23;20032;-76
2023/06/21 07:09:48;;;;;;;12.90;11.63;;;;;;;20.38;98.79;101491.09;6181079;23;20028;-76
2023/06/21 07:12:14;;;;;;;12.93;11.63;;;;;;;20.58;98.37;101493.41;6181158;23;20064;-74
2023/06/21 07:14:39;;;;;;;13.50;12.07;;;;;;;20.87;96.14;101492.97;6180654;23;20075;-76
2023/06/21 07:17:06;;;;;;;15.63;12.70;;;;;;;21.16;95.83;101486.28;6180491;23;20001;-76
2023/06/21 07:19:31;;;;;;;16.10;12.98;;;;;;;21.27;95.94;101483.34;6181035;23;20446;-76
2023/06/21 07:21:57;;;;;;;14.95;13.55;;;;;;;21.52;93.85;101486.81;6180314;23;20011;-76
2023/06/21 07:24:23;;;;;;;14.60;13.07;;;;;;;21.53;90.30;101500.03;6179696;23;20462;-75
2023/06/21 07:26:48;;;;;;;15.25;13.43;;;;;;;21.52;90.75;101486.81;6180182;23;20005;-76
2023/06/21 07:29:14;;;;;;;15.38;13.88;;;;;;;21.64;92.28;101493.53;6180525;23;20060;-75
2023/06/21 07:31:39;;;;;;;15.60;14.00;;;;;;;21.86;93.26;101490.09;6181828;23;20008;-76
2023/06/21 07:34:07;;;;;;;15.13;13.65;;;;;;;22.12;88.10;101489.91;6155539;23;20007;-76
2023/06/21 07:36:33;;;;;;;14.25;12.80;;;;;;;22.47;86.26;101493.13;6177908;23;20383;-76
2023/06/21 07:38:58;;;;;;;12.82;11.48;;;;;;;22.63;81.79;101492.19;6155430;23;20036;-76
2023/06/21 07:41:23;;;;;;;12.63;11.52;;;;;;;22.92;80.25;101503.09;6181560;23;20538;-76
2023/06/21 07:43:49;;;;;;;12.20;11.00;;;;;;;23.22;80.66;101500.53;6181181;23;20001;-76
2023/06/21 07:46:14;;;;;;;11.88;10.77;;;;;;;23.52;77.40;101510.34;6179738;23;20001;-76
2023/06/21 07:48:39;;;;;;;12.40;11.13;;;;;;;23.66;76.70;101501.53;6181596;23;20008;-76
2023/06/21 07:51:05;;;;;;;12.60;11.30;;;;;;;23.62;76.45;101502.06;6180756;23;20428;-76
2023/06/21 07:53:31;;;;;;;13.02;11.88;;;;;;;23.77;77.36;101507.44;6181413;23;20083;-76
2023/06/21 07:56:00;;;;;;;12.38;11.27;;;;;;;23.99;76.82;101501.16;6181447;23;20031;-76
2023/06/21 07:58:25;;;;;;;13.52;12.23;;;;;;;24.26;72.41;101505.03;6180543;23;20008;-75
2023/06/21 08:00:51;;;;;;;11.95;10.85;;;;;;;24.50;74.46;101504.78;6180629;23;20005;-75
2023/06/21 08:03:16;;;;;;;12.07;10.80;;;;;;;24.35;73.76;101510.16;6180129;23;20063;-75
2023/06/21 08:05:41;;;;;;;14.38;10.90;;;;;;;24.38;72.91;101517.84;6180488;23;20037;-75
2023/06/21 08:08:10;;;;;;;10.88;9.88;;;;;;;24.57;70.84;101515.63;6155898;23;20043;-75
2023/06/21 08:10:35;;;;;;;9.68;8.80;;;;;;;24.78;71.81;101520.19;6154799;23;20136;-75
2023/06/21 08:13:02;;;;;;;9.55;8.50;;;;;;;25.06;67.41;101521.16;6180462;23;20878;-75
2023/06/21 08:15:28;;;;;;;8.55;7.75;;;;;;;24.90;64.36;101522.22;6181007;23;20005;-74
2023/06/21 08:17:53;;;;;;;8.35;7.28;;;;;;;25.10;67.60;101522.44;6152555;23;20128;-74
2023/06/21 08:20:18;;;;;;;10.15;8.27;;;;;;;25.38;66.04;101525.19;6179854;23;20076;-74
2023/06/21 08:22:44;;;;;;;9.93;9.02;;;;;;;25.45;64.38;101525.25;6154756;23;20005;-73
2023/06/21 08:25:10;;;;;;;11.55;8.65;;;;;;;25.23;62.75;101527.97;6181032;23;20371;-74
2023/06/21 08:27:35;;;;;;;9.65;8.07;;;;;;;25.24;62.10;101523.41;6180678;23;20001;-73
2023/06/21 08:30:00;;;;;;;8.18;7.38;;;;;;;25.44;61.83;101519.00;6181063;23;20004;-73
2023/06/21 08:32:26;;;;;;;7.82;6.47;;;;;;;25.58;61.29;101514.56;6179862;23;20008;-72
2023/06/21 08:34:54;;;;;;;9.68;6.90;;;;;;;25.69;64.18;101527.56;6179716;23;20036;-72
2023/06/21 08:37:25;;;;;;;7.78;7.10;;;;;;;26.07;61.42;101522.63;6181206;23;20005;-73
2023/06/21 08:39:52;;;;;;;8.50;7.60;;;;;;;26.38;62.81;101518.63;6180222;23;20005;-72
2023/06/21 08:42:19;;;;;;;9.00;8.05;;;;;;;26.58;59.70;101522.25;6181026;23;20017;-73
2023/06/21 08:44:45;;;;;;;8.60;7.70;;;;;;;26.79;58.37;101521.28;6181375;23;20116;-78
2023/06/21 08:47:11;;;;;;;7.57;6.93;;;;;;;26.74;57.57;101527.28;6180448;23;20435;-74
2023/06/21 08:49:42;;;;;;;8.50;7.70;;;;;;;26.71;55.94;101522.28;6181788;23;20005;-78
2023/06/21 08:52:17;;;;;;;8.25;7.40;;;;;;;26.80;57.93;101523.75;6181809;23;20028;-78
2023/06/21 08:54:46;;;;;;;8.18;7.22;;;;;;;26.75;57.06;101528.94;6180273;23;20060;-79
2023/06/21 08:57:20;;;;;;;8.90;7.25;;;;;;;27.04;59.22;101535.91;6181401;23;20001;-78
2023/06/21 08:59:58;;;;;;;6.45;5.60;;;;;;;27.11;56.08;101533.22;6183139;23;20083;-78
2023/06/21 09:02:40;;;;;;;6.20;5.60;;;;;;;27.53;54.89;101523.06;6182439;23;20001;-79
2023/06/21 09:05:12;;;;;;;7.35;5.68;;;;;;;27.74;51.64;101531.00;6183194;23;20001;-78
2023/06/21 09:07:44;;;;;;;4.78;4.38;;;;;;;27.75;50.97;101538.06;6183188;23;20004;-78
2023/06/21 09:10:15;;;;;;;7.03;5.15;;;;;;;27.77;51.87;101533.28;6182526;23;20004;-78
2023/06/21 09:12:43;;;;;;;5.25;4.75;;;;;;;27.92;50.53;101524.91;6183208;23;20346;-80
2023/06/21 09:15:12;;;;;;;3.92;3.60;;;;;;;28.01;48.17;101535.28;6181953;23;20383;-78
2023/06/21 09:17:38;;;;;;;5.13;3.70;;;;;;;28.06;47.21;101527.41;6183015;23;20001;-79
2023/06/21 09:20:04;;;;;;;5.25;3.75;;;;;;;27.92;46.79;101541.97;6156878;23;20031;-79
2023/06/21 09:22:31;;;;;;;4.05;3.60;;;;;;;28.06;46.49;101535.53;6155720;23;20427;-79
2023/06/21 09:24:58;;;;;;;5.78;4.22;;;;;;;28.05;46.33;101538.44;6182195;23;20369;-78
2023/06/21 09:27:24;;;;;;;6.95;3.90;;;;;;;27.95;47.62;101541.56;6181712;23;20071;-79
2023/06/21 09:29:50;;;;;;;4.95;4.38;;;;;;;27.95;48.62;101536.16;6181876;23;20518;-79
2023/06/21 09:32:15;;;;;;;4.70;4.20;;;;;;;27.89;50.78;101537.00;6182474;23;20009;-79
2023/06/21 09:34:41;;;;;;;7.75;4.60;;;;;;;28.09;47.99;101539.69;6156387;23;20005;-80
2023/06/21 09:37:06;;;;;;;5.63;4.43;;;;;;;28.02;47.03;101542.41;6182628;23;20073;-79
2023/06/21 09:39:32;;;;;;;3.78;3.33;;;;;;;27.97;47.25;101554.88;6182923;23;20001;-79
2023/06/21 09:41:57;;;;;;;4.53;3.33;;;;;;;28.05;45.69;101541.97;6156157;23;20025;-79
2023/06/21 09:44:23;;;;;;;4.18;3.78;;;;;;;28.03;46.38;101552.19;6181012;23;20033;-79
2023/06/21 09:46:49;;;;;;;5.20;4.70;;;;;;;27.88;46.50;101562.38;6182564;23;20428;-79
2023/06/21 09:49:16;;;;;;;5.15;4.53;;;;;;;27.81;46.90;101553.44;6131901;23;20317;-79
2023/06/21 09:51:43;;;;;;;4.90;4.40;;;;;;;28.13;48.53;101545.50;6182054;23;20005;-79
2023/06/21 09:54:08;;;;;;;5.13;4.63;;;;;;;28.13;47.74;101545.50;6182923;23;20384;-79
2023/06/21 09:56:37;;;;;;;5.65;4.10;;;;;;;28.14;47.43;101544.44;6182961;23;20028;-79
2023/06/21 09:59:03;;;;;;;3.45;3.15;;;;;;;28.09;44.63;101536.97;6154358;23;20079;-79
2023/06/21 10:01:44;;;;;;;2.97;2.20;;;;;;;28.32;47.45;101547.31;6156044;23;20013;-79
2023/06/21 10:04:14;;;;;;;2.85;2.63;;;;;;;28.38;44.01;101557.28;6181701;23;20013;-79
2023/06/21 10:06:49;;;;;;;5.07;3.15;;;;;;;28.44;47.40;101553.75;6182714;23;20005;-79
2023/06/21 10:09:15;;;;;;;4.88;4.13;;;;;;;28.45;44.82;101558.13;6182450;23;20039;-79
2023/06/21 10:11:44;;;;;;;5.57;4.25;;;;;;;28.67;47.53;101562.19;6182116;23;20005;-79
2023/06/21 10:14:21;;;;;;;8.90;4.57;;;;;;;28.83;46.81;101562.75;6183043;23;20007;-78
2023/06/21 10:16:52;;;;;;;6.53;4.93;;;;;;;28.56;46.34;101568.28;6155864;23;20359;-78
2023/06/21 10:19:22;;;;;;;5.88;5.28;;;;;;;27.97;47.63;101577.34;6181254;23;20001;-79
2023/06/21 10:22:20;;;;;;;5.47;5.05;;;;;;;28.07;48.86;101583.19;6182252;23;20025;-79
2023/06/21 10:24:52;;;;;;;8.57;4.65;;;;;;;27.96;47.28;101581.09;6181661;23;20063;-78
2023/06/21 10:27:22;;;;;;;6.20;3.97;;;;;;;28.02;45.32;101585.69;6180766;23;20008;-78
2023/06/21 10:29:57;;;;;;;3.45;2.70;;;;;;;28.33;46.13;101584.19;6181144;23;20039;-76
2023/06/21 10:32:24;;;;;;;3.80;3.50;;;;;;;28.35;43.73;101590.22;6181175;23;20420;-78
2023/06/21 10:34:56;;;;;;;5.13;3.88;;;;;;;28.38;45.31;101589.78;6181874;23;20037;-79
2023/06/21 10:37:29;;;;;;;3.70;3.40;;;;;;;28.28;44.91;101594.81;6155551;23;20015;-78
2023/06/21 10:40:02;;;;;;;4.63;4.22;;;;;;;27.90;46.46;101597.34;6180511;23;20012;-78
2023/06/21 10:42:29;;;;;;;7.72;5.18;;;;;;;27.48;45.67;101596.69;6180150;23;20031;-79
2023/06/21 10:44:58;;;;;;;4.10;3.70;;;;;;;27.37;47.93;101600.00;6181107;23;20012;-79
2023/06/21 10:47:25;;;;;;;5.35;4.32;;;;;;;27.40;44.88;101603.13;6180896;23;20343;-78
2023/06/21 10:49:53;;;;;;;5.40;4.90;;;;;;;27.58;46.88;101604.38;6181445;23;20012;-78
2023/06/21 10:52:21;;;;;;;6.78;4.60;;;;;;;28.06;46.39;101608.59;6181692;23;20008;-79
2023/06/21 10:54:48;;;;;;;7.90;5.30;;;;;;;28.28;48.15;101605.66;6181535;23;20032;-79
2023/06/21 10:57:14;;;;;;;6.10;5.20;;;;;;;28.27;45.91;101606.69;6182142;23;20063;-78
2023/06/21 10:59:41;;;;;;;6.55;4.43;;;;;;;27.86;46.88;101605.03;6182585;23;20000;-78
2023/06/21 11:02:08;;;;;;;4.65;3.70;;;;;;;27.94;44.62;101609.41;6180519;23;20730;-79
2023/06/21 11:05:11;;;;;;;4.28;3.33;;;;;;;28.32;45.27;101606.88;6179682;23;20005;-78
2023/06/21 11:07:39;;;;;;;3.88;3.08;;;;;;;28.75;42.62;101609.03;6182007;23;20013;-78
2023/06/21 11:10:05;;;;;;;3.67;2.47;;;;;;;28.78;42.01;101603.19;6181812;23;20075;-77
2023/06/21 11:12:34;;;;;;;6.43;3.72;;;;;;;28.92;42.32;101602.13;6182039;23;20001;-79